Colesville, New York
Current Conditions -  °F | °C
As of 12:53 AM on Monday 20 Oct 2014 (Local Time) from KBGM Reporting Station
Clear Clear  
Wind Chill: 25°   Ceiling: Unl
Heat Index: 32°   Visibility: 10mi
Dew Point: 26°   Wind: 8mph
Humidity: 79%   Direction: 230°SW
Pressure: 30.02"   Gusts: NA
Location:  42.1976°N, 75.6682°W
Report Text: KBGM 200453Z AUTO 23007KT 10SM CLR 00/M03 A3002 RMK AO2 SLP178 T00001033 400561006
Loading
Personal Weather Stations






























Interactive Weather Map
Tropical Storm Tracking
New forecast layout! Learn more

10-Day Weather Forecast

Advertisements
Track Severe Weather on mobile